sensor_id;sensor_type;location;lat;lon;timestamp;P1;P2;P0
62846;PMS5003;49477;35.676;139.586;2023-07-02T00:00:54;0;0;
62846;PMS5003;49477;35.676;139.586;2023-07-02T00:03:29;1;1;
62846;PMS5003;49477;35.676;139.586;2023-07-02T00:05:58;1;1;
62846;PMS5003;49477;35.676;139.586;2023-07-02T00:08:28;0;0;
62846;PMS5003;49477;35.676;139.586;2023-07-02T00:10:57;1;1;
62846;PMS5003;49477;35.676;139.586;2023-07-02T00:13:27;1;1;
62846;PMS5003;49477;35.676;139.586;2023-07-02T00:15:56;1;1;
62846;PMS5003;49477;35.676;139.586;2023-07-02T00:18:26;1;1;
62846;PMS5003;49477;35.676;139.586;2023-07-02T00:20:55;1;1;
62846;PMS5003;49477;35.676;139.586;2023-07-02T00:23:25;1;1;
62846;PMS5003;49477;35.676;139.586;2023-07-02T00:25:54;0;0;
62846;PMS5003;49477;35.676;139.586;2023-07-02T00:28:25;1;1;
62846;PMS5003;49477;35.676;139.586;2023-07-02T00:30:54;2;2;
62846;PMS5003;49477;35.676;139.586;2023-07-02T00:33:23;1;1;
62846;PMS5003;49477;35.676;139.586;2023-07-02T00:35:53;1;1;
62846;PMS5003;49477;35.676;139.586;2023-07-02T00:38:22;0;0;
62846;PMS5003;49477;35.676;139.586;2023-07-02T00:40:52;1;1;
62846;PMS5003;49477;35.676;139.586;2023-07-02T00:43:22;1;1;
62846;PMS5003;49477;35.676;139.586;2023-07-02T00:45:52;2;1;
62846;PMS5003;49477;35.676;139.586;2023-07-02T00:48:21;2;1;
62846;PMS5003;49477;35.676;139.586;2023-07-02T00:50:51;1;1;
62846;PMS5003;49477;35.676;139.586;2023-07-02T00:53:21;2;2;
62846;PMS5003;49477;35.676;139.586;2023-07-02T00:55:50;1;1;
62846;PMS5003;49477;35.676;139.586;2023-07-02T00:58:20;1;1;
62846;PMS5003;49477;35.676;139.586;2023-07-02T01:00:49;0;0;
62846;PMS5003;49477;35.676;139.586;2023-07-02T01:03:19;1;1;
62846;PMS5003;49477;35.676;139.586;2023-07-02T01:05:49;2;2;
62846;PMS5003;49477;35.676;139.586;2023-07-02T01:08:18;2;2;
62846;PMS5003;49477;35.676;139.586;2023-07-02T01:10:47;2;0;
62846;PMS5003;49477;35.676;139.586;2023-07-02T01:13:18;2;2;
62846;PMS5003;49477;35.676;139.586;2023-07-02T01:15:49;1;1;
62846;PMS5003;49477;35.676;139.586;2023-07-02T01:18:19;1;1;
62846;PMS5003;49477;35.676;139.586;2023-07-02T01:20:49;0;0;
62846;PMS5003;49477;35.676;139.586;2023-07-02T01:23:19;1;1;
62846;PMS5003;49477;35.676;139.586;2023-07-02T01:25:48;2;2;
62846;PMS5003;49477;35.676;139.586;2023-07-02T01:28:21;2;2;
62846;PMS5003;49477;35.676;139.586;2023-07-02T01:30:50;2;2;
62846;PMS5003;49477;35.676;139.586;2023-07-02T01:33:20;1;1;
62846;PMS5003;49477;35.676;139.586;2023-07-02T01:35:49;0;0;
62846;PMS5003;49477;35.676;139.586;2023-07-02T01:38:18;1;1;
62846;PMS5003;49477;35.676;139.586;2023-07-02T01:40:48;0;0;
62846;PMS5003;49477;35.676;139.586;2023-07-02T01:43:18;2;2;
62846;PMS5003;49477;35.676;139.586;2023-07-02T01:45:48;0;0;
62846;PMS5003;49477;35.676;139.586;2023-07-02T01:48:17;1;1;
62846;PMS5003;49477;35.676;139.586;2023-07-02T01:50:47;2;2;
62846;PMS5003;49477;35.676;139.586;2023-07-02T01:53:16;2;2;
62846;PMS5003;49477;35.676;139.586;2023-07-02T01:55:46;1;1;
62846;PMS5003;49477;35.676;139.586;2023-07-02T01:58:15;1;1;
62846;PMS5003;49477;35.676;139.586;2023-07-02T02:00:45;2;2;
62846;PMS5003;49477;35.676;139.586;2023-07-02T02:03:14;0;0;
62846;PMS5003;49477;35.676;139.586;2023-07-02T02:05:43;1;1;
62846;PMS5003;49477;35.676;139.586;2023-07-02T02:08:13;2;2;
62846;PMS5003;49477;35.676;139.586;2023-07-02T02:10:42;2;1;
62846;PMS5003;49477;35.676;139.586;2023-07-02T02:13:12;2;2;
62846;PMS5003;49477;35.676;139.586;2023-07-02T02:15:41;0;0;
62846;PMS5003;49477;35.676;139.586;2023-07-02T02:18:11;2;2;
62846;PMS5003;49477;35.676;139.586;2023-07-02T02:20:47;2;2;
62846;PMS5003;49477;35.676;139.586;2023-07-02T02:23:16;1;1;
62846;PMS5003;49477;35.676;139.586;2023-07-02T02:25:45;1;1;
62846;PMS5003;49477;35.676;139.586;2023-07-02T02:28:15;1;1;
62846;PMS5003;49477;35.676;139.586;2023-07-02T02:30:44;2;2;
62846;PMS5003;49477;35.676;139.586;2023-07-02T02:33:14;0;0;
62846;PMS5003;49477;35.676;139.586;2023-07-02T02:35:43;3;3;
62846;PMS5003;49477;35.676;139.586;2023-07-02T02:38:12;1;1;
62846;PMS5003;49477;35.676;139.586;2023-07-02T02:40:42;2;1;
62846;PMS5003;49477;35.676;139.586;2023-07-02T02:43:11;1;1;
62846;PMS5003;49477;35.676;139.586;2023-07-02T02:45:41;1;1;
62846;PMS5003;49477;35.676;139.586;2023-07-02T02:48:10;2;2;
62846;PMS5003;49477;35.676;139.586;2023-07-02T02:50:40;2;2;
62846;PMS5003;49477;35.676;139.586;2023-07-02T02:53:10;2;2;
62846;PMS5003;49477;35.676;139.586;2023-07-02T02:55:39;2;2;
62846;PMS5003;49477;35.676;139.586;2023-07-02T02:58:08;0;0;
62846;PMS5003;49477;35.676;139.586;2023-07-02T03:00:38;1;1;
62846;PMS5003;49477;35.676;139.586;2023-07-02T03:03:07;3;2;
62846;PMS5003;49477;35.676;139.586;2023-07-02T03:05:37;3;3;
62846;PMS5003;49477;35.676;139.586;2023-07-02T03:08:06;2;2;
62846;PMS5003;49477;35.676;139.586;2023-07-02T03:10:36;2;2;
62846;PMS5003;49477;35.676;139.586;2023-07-02T03:13:07;1;1;
62846;PMS5003;49477;35.676;139.586;2023-07-02T03:15:37;3;3;
62846;PMS5003;49477;35.676;139.586;2023-07-02T03:18:07;3;3;
62846;PMS5003;49477;35.676;139.586;2023-07-02T03:20:42;2;2;
62846;PMS5003;49477;35.676;139.586;2023-07-02T03:23:11;3;3;
62846;PMS5003;49477;35.676;139.586;2023-07-02T03:25:41;2;2;
62846;PMS5003;49477;35.676;139.586;2023-07-02T03:28:11;4;2;
62846;PMS5003;49477;35.676;139.586;2023-07-02T03:30:40;3;3;
62846;PMS5003;49477;35.676;139.586;2023-07-02T03:33:10;2;2;
62846;PMS5003;49477;35.676;139.586;2023-07-02T03:35:39;3;3;
62846;PMS5003;49477;35.676;139.586;2023-07-02T03:38:09;3;3;
62846;PMS5003;49477;35.676;139.586;2023-07-02T03:40:39;5;3;
62846;PMS5003;49477;35.676;139.586;2023-07-02T03:43:08;2;2;
62846;PMS5003;49477;35.676;139.586;2023-07-02T03:45:37;4;4;
62846;PMS5003;49477;35.676;139.586;2023-07-02T03:48:07;3;3;
62846;PMS5003;49477;35.676;139.586;2023-07-02T03:50:39;3;3;
62846;PMS5003;49477;35.676;139.586;2023-07-02T03:53:08;3;3;
62846;PMS5003;49477;35.676;139.586;2023-07-02T03:55:37;2;2;
62846;PMS5003;49477;35.676;139.586;2023-07-02T03:58:07;2;1;
62846;PMS5003;49477;35.676;139.586;2023-07-02T04:00:36;3;3;
62846;PMS5003;49477;35.676;139.586;2023-07-02T04:03:05;3;3;
62846;PMS5003;49477;35.676;139.586;2023-07-02T04:05:41;3;3;
62846;PMS5003;49477;35.676;139.586;2023-07-02T04:08:11;4;4;
62846;PMS5003;49477;35.676;139.586;2023-07-02T04:10:43;4;3;
62846;PMS5003;49477;35.676;139.586;2023-07-02T04:13:12;4;4;
62846;PMS5003;49477;35.676;139.586;2023-07-02T04:15:42;4;4;
62846;PMS5003;49477;35.676;139.586;2023-07-02T04:18:12;4;4;
62846;PMS5003;49477;35.676;139.586;2023-07-02T04:20:42;5;5;
62846;PMS5003;49477;35.676;139.586;2023-07-02T04:23:12;5;5;
62846;PMS5003;49477;35.676;139.586;2023-07-02T04:25:41;4;4;
62846;PMS5003;49477;35.676;139.586;2023-07-02T04:28:13;4;4;
62846;PMS5003;49477;35.676;139.586;2023-07-02T04:30:43;5;5;
62846;PMS5003;49477;35.676;139.586;2023-07-02T04:33:12;8;6;
62846;PMS5003;49477;35.676;139.586;2023-07-02T04:35:42;8;8;
62846;PMS5003;49477;35.676;139.586;2023-07-02T04:38:11;6;6;
62846;PMS5003;49477;35.676;139.586;2023-07-02T04:40:40;8;7;
62846;PMS5003;49477;35.676;139.586;2023-07-02T04:43:10;7;5;
62846;PMS5003;49477;35.676;139.586;2023-07-02T04:45:39;7;5;
62846;PMS5003;49477;35.676;139.586;2023-07-02T04:48:09;5;5;
62846;PMS5003;49477;35.676;139.586;2023-07-02T04:50:38;6;6;
62846;PMS5003;49477;35.676;139.586;2023-07-02T04:53:10;7;7;
62846;PMS5003;49477;35.676;139.586;2023-07-02T04:55:40;9;8;
62846;PMS5003;49477;35.676;139.586;2023-07-02T04:58:11;8;6;
62846;PMS5003;49477;35.676;139.586;2023-07-02T05:00:41;7;7;
62846;PMS5003;49477;35.676;139.586;2023-07-02T05:03:10;8;8;
62846;PMS5003;49477;35.676;139.586;2023-07-02T05:05:40;8;8;
62846;PMS5003;49477;35.676;139.586;2023-07-02T05:08:09;9;8;
62846;PMS5003;49477;35.676;139.586;2023-07-02T05:10:39;7;7;
62846;PMS5003;49477;35.676;139.586;2023-07-02T05:13:09;7;7;
62846;PMS5003;49477;35.676;139.586;2023-07-02T05:15:38;9;9;
62846;PMS5003;49477;35.676;139.586;2023-07-02T05:18:07;9;8;
62846;PMS5003;49477;35.676;139.586;2023-07-02T05:20:37;7;6;
62846;PMS5003;49477;35.676;139.586;2023-07-02T05:23:06;11;9;
62846;PMS5003;49477;35.676;139.586;2023-07-02T05:25:37;11;10;
62846;PMS5003;49477;35.676;139.586;2023-07-02T05:28:06;11;9;
62846;PMS5003;49477;35.676;139.586;2023-07-02T05:30:35;10;9;
62846;PMS5003;49477;35.676;139.586;2023-07-02T05:33:05;11;7;
62846;PMS5003;49477;35.676;139.586;2023-07-02T05:35:34;10;9;
62846;PMS5003;49477;35.676;139.586;2023-07-02T05:38:04;11;10;
62846;PMS5003;49477;35.676;139.586;2023-07-02T05:40:33;10;10;
62846;PMS5003;49477;35.676;139.586;2023-07-02T05:43:03;10;9;
62846;PMS5003;49477;35.676;139.586;2023-07-02T05:45:32;10;10;
62846;PMS5003;49477;35.676;139.586;2023-07-02T05:48:02;12;12;
62846;PMS5003;49477;35.676;139.586;2023-07-02T05:50:31;10;10;
62846;PMS5003;49477;35.676;139.586;2023-07-02T05:53:02;13;11;
62846;PMS5003;49477;35.676;139.586;2023-07-02T05:55:31;10;10;
62846;PMS5003;49477;35.676;139.586;2023-07-02T05:58:00;10;9;
62846;PMS5003;49477;35.676;139.586;2023-07-02T06:00:30;14;11;
62846;PMS5003;49477;35.676;139.586;2023-07-02T06:02:59;12;11;
62846;PMS5003;49477;35.676;139.586;2023-07-02T06:05:29;12;12;
62846;PMS5003;49477;35.676;139.586;2023-07-02T06:07:58;12;11;
62846;PMS5003;49477;35.676;139.586;2023-07-02T06:10:27;11;11;
62846;PMS5003;49477;35.676;139.586;2023-07-02T06:12:57;11;11;
62846;PMS5003;49477;35.676;139.586;2023-07-02T06:15:27;11;11;
62846;PMS5003;49477;35.676;139.586;2023-07-02T06:17:56;10;10;
62846;PMS5003;49477;35.676;139.586;2023-07-02T06:20:26;11;11;
62846;PMS5003;49477;35.676;139.586;2023-07-02T06:22:55;9;9;
62846;PMS5003;49477;35.676;139.586;2023-07-02T06:25:25;10;10;
62846;PMS5003;49477;35.676;139.586;2023-07-02T06:27:54;8;8;
62846;PMS5003;49477;35.676;139.586;2023-07-02T06:30:23;11;11;
62846;PMS5003;49477;35.676;139.586;2023-07-02T06:32:54;11;9;
62846;PMS5003;49477;35.676;139.586;2023-07-02T06:35:23;11;11;
62846;PMS5003;49477;35.676;139.586;2023-07-02T06:37:53;11;10;
62846;PMS5003;49477;35.676;139.586;2023-07-02T06:40:22;8;8;
62846;PMS5003;49477;35.676;139.586;2023-07-02T06:42:52;11;11;
62846;PMS5003;49477;35.676;139.586;2023-07-02T06:45:21;9;9;
62846;PMS5003;49477;35.676;139.586;2023-07-02T06:47:51;9;9;
62846;PMS5003;49477;35.676;139.586;2023-07-02T06:50:20;9;9;
62846;PMS5003;49477;35.676;139.586;2023-07-02T06:52:50;9;9;
62846;PMS5003;49477;35.676;139.586;2023-07-02T06:55:21;10;7;
62846;PMS5003;49477;35.676;139.586;2023-07-02T06:57:50;9;9;
62846;PMS5003;49477;35.676;139.586;2023-07-02T07:00:20;10;9;
62846;PMS5003;49477;35.676;139.586;2023-07-02T07:02:49;9;8;
62846;PMS5003;49477;35.676;139.586;2023-07-02T07:05:20;10;8;
62846;PMS5003;49477;35.676;139.586;2023-07-02T07:07:49;8;8;
62846;PMS5003;49477;35.676;139.586;2023-07-02T07:10:19;9;9;
62846;PMS5003;49477;35.676;139.586;2023-07-02T07:12:48;9;8;
62846;PMS5003;49477;35.676;139.586;2023-07-02T07:15:18;6;6;
62846;PMS5003;49477;35.676;139.586;2023-07-02T07:17:48;9;9;
62846;PMS5003;49477;35.676;139.586;2023-07-02T07:20:17;5;5;
62846;PMS5003;49477;35.676;139.586;2023-07-02T07:22:46;6;6;
62846;PMS5003;49477;35.676;139.586;2023-07-02T07:25:16;9;7;
62846;PMS5003;49477;35.676;139.586;2023-07-02T07:27:45;6;6;
62846;PMS5003;49477;35.676;139.586;2023-07-02T07:30:15;5;4;
62846;PMS5003;49477;35.676;139.586;2023-07-02T07:32:44;6;6;
62846;PMS5003;49477;35.676;139.586;2023-07-02T07:35:14;6;6;
62846;PMS5003;49477;35.676;139.586;2023-07-02T07:37:43;7;6;
62846;PMS5003;49477;35.676;139.586;2023-07-02T07:40:13;4;4;
62846;PMS5003;49477;35.676;139.586;2023-07-02T07:42:43;5;5;
62846;PMS5003;49477;35.676;139.586;2023-07-02T07:45:12;6;6;
62846;PMS5003;49477;35.676;139.586;2023-07-02T07:47:42;6;6;
62846;PMS5003;49477;35.676;139.586;2023-07-02T07:50:11;6;6;
62846;PMS5003;49477;35.676;139.586;2023-07-02T07:52:41;4;4;
62846;PMS5003;49477;35.676;139.586;2023-07-02T07:55:11;5;5;
62846;PMS5003;49477;35.676;139.586;2023-07-02T07:57:41;5;5;
62846;PMS5003;49477;35.676;139.586;2023-07-02T08:00:10;4;4;
62846;PMS5003;49477;35.676;139.586;2023-07-02T08:02:42;4;4;
62846;PMS5003;49477;35.676;139.586;2023-07-02T08:05:12;4;4;
62846;PMS5003;49477;35.676;139.586;2023-07-02T08:07:47;5;3;
62846;PMS5003;49477;35.676;139.586;2023-07-02T08:10:17;6;5;
62846;PMS5003;49477;35.676;139.586;2023-07-02T08:12:46;5;4;
62846;PMS5003;49477;35.676;139.586;2023-07-02T08:15:16;4;3;
62846;PMS5003;49477;35.676;139.586;2023-07-02T08:17:50;5;5;
62846;PMS5003;49477;35.676;139.586;2023-07-02T08:20:20;3;3;
62846;PMS5003;49477;35.676;139.586;2023-07-02T08:22:49;4;4;
62846;PMS5003;49477;35.676;139.586;2023-07-02T08:25:19;3;3;
62846;PMS5003;49477;35.676;139.586;2023-07-02T08:27:50;4;4;
62846;PMS5003;49477;35.676;139.586;2023-07-02T08:30:20;5;5;
62846;PMS5003;49477;35.676;139.586;2023-07-02T08:32:50;6;5;
62846;PMS5003;49477;35.676;139.586;2023-07-02T08:35:19;3;3;
62846;PMS5003;49477;35.676;139.586;2023-07-02T08:37:49;4;4;
62846;PMS5003;49477;35.676;139.586;2023-07-02T08:40:19;5;3;
62846;PMS5003;49477;35.676;139.586;2023-07-02T08:42:49;3;3;
62846;PMS5003;49477;35.676;139.586;2023-07-02T08:45:18;4;4;
62846;PMS5003;49477;35.676;139.586;2023-07-02T08:47:49;3;3;
62846;PMS5003;49477;35.676;139.586;2023-07-02T08:50:19;3;3;
62846;PMS5003;49477;35.676;139.586;2023-07-02T08:52:49;5;4;
62846;PMS5003;49477;35.676;139.586;2023-07-02T08:55:20;2;2;
62846;PMS5003;49477;35.676;139.586;2023-07-02T08:57:52;2;2;
62846;PMS5003;49477;35.676;139.586;2023-07-02T09:00:23;4;4;
62846;PMS5003;49477;35.676;139.586;2023-07-02T09:02:53;2;2;
62846;PMS5003;49477;35.676;139.586;2023-07-02T09:05:22;3;3;
62846;PMS5003;49477;35.676;139.586;2023-07-02T09:07:52;2;2;
62846;PMS5003;49477;35.676;139.586;2023-07-02T09:10:26;3;3;
62846;PMS5003;49477;35.676;139.586;2023-07-02T09:13:03;3;3;
62846;PMS5003;49477;35.676;139.586;2023-07-02T09:15:35;5;4;
62846;PMS5003;49477;35.676;139.586;2023-07-02T09:18:16;3;3;
62846;PMS5003;49477;35.676;139.586;2023-07-02T09:20:46;3;3;
62846;PMS5003;49477;35.676;139.586;2023-07-02T09:23:18;4;3;
62846;PMS5003;49477;35.676;139.586;2023-07-02T09:25:48;3;3;
62846;PMS5003;49477;35.676;139.586;2023-07-02T09:28:18;2;2;
62846;PMS5003;49477;35.676;139.586;2023-07-02T09:30:51;3;3;
62846;PMS5003;49477;35.676;139.586;2023-07-02T09:33:22;3;3;
62846;PMS5003;49477;35.676;139.586;2023-07-02T09:35:52;3;3;
62846;PMS5003;49477;35.676;139.586;2023-07-02T09:38:21;3;3;
62846;PMS5003;49477;35.676;139.586;2023-07-02T09:40:53;2;2;
62846;PMS5003;49477;35.676;139.586;2023-07-02T09:43:23;5;4;
62846;PMS5003;49477;35.676;139.586;2023-07-02T09:45:54;3;3;
62846;PMS5003;49477;35.676;139.586;2023-07-02T09:48:24;3;3;
62846;PMS5003;49477;35.676;139.586;2023-07-02T09:50:55;4;3;
62846;PMS5003;49477;35.676;139.586;2023-07-02T09:53:27;2;2;
62846;PMS5003;49477;35.676;139.586;2023-07-02T09:55:56;5;3;
62846;PMS5003;49477;35.676;139.586;2023-07-02T09:58:27;4;4;
62846;PMS5003;49477;35.676;139.586;2023-07-02T10:00:56;1;1;
62846;PMS5003;49477;35.676;139.586;2023-07-02T10:03:30;4;4;
62846;PMS5003;49477;35.676;139.586;2023-07-02T10:06:06;3;3;
62846;PMS5003;49477;35.676;139.586;2023-07-02T10:08:35;3;3;
62846;PMS5003;49477;35.676;139.586;2023-07-02T10:11:09;2;2;
62846;PMS5003;49477;35.676;139.586;2023-07-02T10:13:39;3;1;
62846;PMS5003;49477;35.676;139.586;2023-07-02T10:16:09;3;3;
62846;PMS5003;49477;35.676;139.586;2023-07-02T10:18:39;3;3;
62846;PMS5003;49477;35.676;139.586;2023-07-02T10:21:15;3;3;
62846;PMS5003;49477;35.676;139.586;2023-07-02T10:23:45;4;4;
62846;PMS5003;49477;35.676;139.586;2023-07-02T10:26:15;4;4;
62846;PMS5003;49477;35.676;139.586;2023-07-02T10:28:56;3;1;
62846;PMS5003;49477;35.676;139.586;2023-07-02T10:31:26;3;2;
62846;PMS5003;49477;35.676;139.586;2023-07-02T10:33:55;2;2;
62846;PMS5003;49477;35.676;139.586;2023-07-02T10:36:25;5;5;
62846;PMS5003;49477;35.676;139.586;2023-07-02T10:39:00;3;3;
62846;PMS5003;49477;35.676;139.586;2023-07-02T10:41:30;4;4;
62846;PMS5003;49477;35.676;139.586;2023-07-02T10:44:07;4;4;
62846;PMS5003;49477;35.676;139.586;2023-07-02T10:46:43;3;3;
62846;PMS5003;49477;35.676;139.586;2023-07-02T10:49:13;2;2;
62846;PMS5003;49477;35.676;139.586;2023-07-02T10:51:45;3;3;
62846;PMS5003;49477;35.676;139.586;2023-07-02T10:54:25;3;3;
62846;PMS5003;49477;35.676;139.586;2023-07-02T10:57:06;5;4;
62846;PMS5003;49477;35.676;139.586;2023-07-02T10:59:35;3;3;
62846;PMS5003;49477;35.676;139.586;2023-07-02T11:02:05;4;4;
62846;PMS5003;49477;35.676;139.586;2023-07-02T11:04:35;3;3;
62846;PMS5003;49477;35.676;139.586;2023-07-02T11:07:05;3;2;
62846;PMS5003;49477;35.676;139.586;2023-07-02T11:09:34;5;5;
62846;PMS5003;49477;35.676;139.586;2023-07-02T11:12:04;3;3;
62846;PMS5003;49477;35.676;139.586;2023-07-02T11:14:34;2;2;
62846;PMS5003;49477;35.676;139.586;2023-07-02T11:17:05;5;5;
62846;PMS5003;49477;35.676;139.586;2023-07-02T11:19:35;4;4;
62846;PMS5003;49477;35.676;139.586;2023-07-02T11:22:04;3;3;
62846;PMS5003;49477;35.676;139.586;2023-07-02T11:24:35;3;3;
62846;PMS5003;49477;35.676;139.586;2023-07-02T11:27:05;2;2;
62846;PMS5003;49477;35.676;139.586;2023-07-02T11:29:39;3;3;
62846;PMS5003;49477;35.676;139.586;2023-07-02T11:32:10;7;4;
62846;PMS5003;49477;35.676;139.586;2023-07-02T11:34:39;3;3;
62846;PMS5003;49477;35.676;139.586;2023-07-02T11:37:09;4;4;
62846;PMS5003;49477;35.676;139.586;2023-07-02T11:39:39;2;2;
62846;PMS5003;49477;35.676;139.586;2023-07-02T11:42:10;4;4;
62846;PMS5003;49477;35.676;139.586;2023-07-02T11:44:40;6;6;
62846;PMS5003;49477;35.676;139.586;2023-07-02T11:47:09;4;4;
62846;PMS5003;49477;35.676;139.586;2023-07-02T11:49:39;4;3;
62846;PMS5003;49477;35.676;139.586;2023-07-02T11:52:08;5;5;
62846;PMS5003;49477;35.676;139.586;2023-07-02T11:54:38;6;6;
62846;PMS5003;49477;35.676;139.586;2023-07-02T11:57:07;5;4;
62846;PMS5003;49477;35.676;139.586;2023-07-02T11:59:37;3;3;
62846;PMS5003;49477;35.676;139.586;2023-07-02T12:02:06;4;4;
62846;PMS5003;49477;35.676;139.586;2023-07-02T12:04:36;3;3;
62846;PMS5003;49477;35.676;139.586;2023-07-02T12:07:05;5;4;
62846;PMS5003;49477;35.676;139.586;2023-07-02T12:09:36;4;4;
62846;PMS5003;49477;35.676;139.586;2023-07-02T12:12:06;6;6;
62846;PMS5003;49477;35.676;139.586;2023-07-02T12:14:36;5;5;
62846;PMS5003;49477;35.676;139.586;2023-07-02T12:17:06;5;5;
62846;PMS5003;49477;35.676;139.586;2023-07-02T12:19:35;4;4;
62846;PMS5003;49477;35.676;139.586;2023-07-02T12:22:04;5;5;
62846;PMS5003;49477;35.676;139.586;2023-07-02T12:24:34;7;7;
62846;PMS5003;49477;35.676;139.586;2023-07-02T12:27:04;4;3;
62846;PMS5003;49477;35.676;139.586;2023-07-02T12:29:33;5;5;
62846;PMS5003;49477;35.676;139.586;2023-07-02T12:32:03;6;4;
62846;PMS5003;49477;35.676;139.586;2023-07-02T12:34:33;7;5;
62846;PMS5003;49477;35.676;139.586;2023-07-02T12:37:07;2;2;
62846;PMS5003;49477;35.676;139.586;2023-07-02T12:39:36;5;5;
62846;PMS5003;49477;35.676;139.586;2023-07-02T12:42:07;7;5;
62846;PMS5003;49477;35.676;139.586;2023-07-02T12:44:36;4;4;
62846;PMS5003;49477;35.676;139.586;2023-07-02T12:47:07;2;2;
62846;PMS5003;49477;35.676;139.586;2023-07-02T12:49:36;4;4;
62846;PMS5003;49477;35.676;139.586;2023-07-02T12:52:05;5;5;
62846;PMS5003;49477;35.676;139.586;2023-07-02T12:54:35;4;4;
62846;PMS5003;49477;35.676;139.586;2023-07-02T12:57:05;6;4;
62846;PMS5003;49477;35.676;139.586;2023-07-02T12:59:34;5;5;
62846;PMS5003;49477;35.676;139.586;2023-07-02T13:02:03;5;5;
62846;PMS5003;49477;35.676;139.586;2023-07-02T13:04:33;4;4;
62846;PMS5003;49477;35.676;139.586;2023-07-02T13:07:07;5;4;
62846;PMS5003;49477;35.676;139.586;2023-07-02T13:09:37;4;4;
62846;PMS5003;49477;35.676;139.586;2023-07-02T13:12:07;5;5;
62846;PMS5003;49477;35.676;139.586;2023-07-02T13:14:37;6;5;
62846;PMS5003;49477;35.676;139.586;2023-07-02T13:17:06;8;7;
62846;PMS5003;49477;35.676;139.586;2023-07-02T13:19:36;5;4;
62846;PMS5003;49477;35.676;139.586;2023-07-02T13:22:05;7;7;
62846;PMS5003;49477;35.676;139.586;2023-07-02T13:24:35;8;6;
62846;PMS5003;49477;35.676;139.586;2023-07-02T13:27:05;5;5;
62846;PMS5003;49477;35.676;139.586;2023-07-02T13:29:38;5;5;
62846;PMS5003;49477;35.676;139.586;2023-07-02T13:32:09;6;5;
62846;PMS5003;49477;35.676;139.586;2023-07-02T13:34:39;3;3;
62846;PMS5003;49477;35.676;139.586;2023-07-02T13:37:09;6;6;
62846;PMS5003;49477;35.676;139.586;2023-07-02T13:39:38;7;7;
62846;PMS5003;49477;35.676;139.586;2023-07-02T13:42:13;8;7;
62846;PMS5003;49477;35.676;139.586;2023-07-02T13:44:42;5;5;
62846;PMS5003;49477;35.676;139.586;2023-07-02T13:47:12;7;7;
62846;PMS5003;49477;35.676;139.586;2023-07-02T13:49:42;7;5;
62846;PMS5003;49477;35.676;139.586;2023-07-02T13:52:11;8;7;
62846;PMS5003;49477;35.676;139.586;2023-07-02T13:54:40;4;4;
62846;PMS5003;49477;35.676;139.586;2023-07-02T13:57:10;4;4;
62846;PMS5003;49477;35.676;139.586;2023-07-02T13:59:41;6;5;
62846;PMS5003;49477;35.676;139.586;2023-07-02T14:02:11;9;7;
62846;PMS5003;49477;35.676;139.586;2023-07-02T14:04:40;8;6;
62846;PMS5003;49477;35.676;139.586;2023-07-02T14:07:10;7;7;
62846;PMS5003;49477;35.676;139.586;2023-07-02T14:09:39;6;6;
62846;PMS5003;49477;35.676;139.586;2023-07-02T14:12:09;6;6;
62846;PMS5003;49477;35.676;139.586;2023-07-02T14:14:38;4;4;
62846;PMS5003;49477;35.676;139.586;2023-07-02T14:17:08;9;9;
62846;PMS5003;49477;35.676;139.586;2023-07-02T14:19:37;9;6;
62846;PMS5003;49477;35.676;139.586;2023-07-02T14:22:06;7;5;
62846;PMS5003;49477;35.676;139.586;2023-07-02T14:24:36;9;7;
62846;PMS5003;49477;35.676;139.586;2023-07-02T14:27:05;10;6;
62846;PMS5003;49477;35.676;139.586;2023-07-02T14:29:35;6;6;
62846;PMS5003;49477;35.676;139.586;2023-07-02T14:32:05;4;4;
62846;PMS5003;49477;35.676;139.586;2023-07-02T14:34:34;4;4;
62846;PMS5003;49477;35.676;139.586;2023-07-02T14:37:04;8;6;
62846;PMS5003;49477;35.676;139.586;2023-07-02T14:39:34;6;6;
62846;PMS5003;49477;35.676;139.586;2023-07-02T14:42:05;7;6;
62846;PMS5003;49477;35.676;139.586;2023-07-02T14:44:35;6;5;
62846;PMS5003;49477;35.676;139.586;2023-07-02T14:47:04;7;6;
62846;PMS5003;49477;35.676;139.586;2023-07-02T14:49:34;4;4;
62846;PMS5003;49477;35.676;139.586;2023-07-02T14:52:05;4;4;
62846;PMS5003;49477;35.676;139.586;2023-07-02T14:54:34;6;6;
62846;PMS5003;49477;35.676;139.586;2023-07-02T14:57:04;8;8;
62846;PMS5003;49477;35.676;139.586;2023-07-02T14:59:35;4;4;
62846;PMS5003;49477;35.676;139.586;2023-07-02T15:02:04;4;4;
62846;PMS5003;49477;35.676;139.586;2023-07-02T15:04:33;6;6;
62846;PMS5003;49477;35.676;139.586;2023-07-02T15:07:03;6;6;
62846;PMS5003;49477;35.676;139.586;2023-07-02T15:09:32;6;6;
62846;PMS5003;49477;35.676;139.586;2023-07-02T15:12:02;5;5;
62846;PMS5003;49477;35.676;139.586;2023-07-02T15:14:31;7;5;
62846;PMS5003;49477;35.676;139.586;2023-07-02T15:17:00;6;6;
62846;PMS5003;49477;35.676;139.586;2023-07-02T15:19:30;7;7;
62846;PMS5003;49477;35.676;139.586;2023-07-02T15:22:00;7;6;
62846;PMS5003;49477;35.676;139.586;2023-07-02T15:24:30;7;6;
62846;PMS5003;49477;35.676;139.586;2023-07-02T15:26:59;6;4;
62846;PMS5003;49477;35.676;139.586;2023-07-02T15:29:29;7;6;
62846;PMS5003;49477;35.676;139.586;2023-07-02T15:31:58;7;6;
62846;PMS5003;49477;35.676;139.586;2023-07-02T15:34:27;5;4;
62846;PMS5003;49477;35.676;139.586;2023-07-02T15:36:57;4;4;
62846;PMS5003;49477;35.676;139.586;2023-07-02T15:39:26;4;4;
62846;PMS5003;49477;35.676;139.586;2023-07-02T15:41:56;5;5;
62846;PMS5003;49477;35.676;139.586;2023-07-02T15:44:26;7;7;
62846;PMS5003;49477;35.676;139.586;2023-07-02T15:46:55;4;4;
62846;PMS5003;49477;35.676;139.586;2023-07-02T15:49:25;7;6;
62846;PMS5003;49477;35.676;139.586;2023-07-02T15:51:54;5;4;
62846;PMS5003;49477;35.676;139.586;2023-07-02T15:54:23;6;4;
62846;PMS5003;49477;35.676;139.586;2023-07-02T15:56:53;6;4;
62846;PMS5003;49477;35.676;139.586;2023-07-02T15:59:22;8;8;
62846;PMS5003;49477;35.676;139.586;2023-07-02T16:01:52;7;7;
62846;PMS5003;49477;35.676;139.586;2023-07-02T16:04:21;7;5;
62846;PMS5003;49477;35.676;139.586;2023-07-02T16:06:51;6;6;
62846;PMS5003;49477;35.676;139.586;2023-07-02T16:09:21;5;5;
62846;PMS5003;49477;35.676;139.586;2023-07-02T16:11:51;9;7;
62846;PMS5003;49477;35.676;139.586;2023-07-02T16:14:20;5;5;
62846;PMS5003;49477;35.676;139.586;2023-07-02T16:16:49;5;5;
62846;PMS5003;49477;35.676;139.586;2023-07-02T16:19:19;3;3;
62846;PMS5003;49477;35.676;139.586;2023-07-02T16:21:49;6;6;
62846;PMS5003;49477;35.676;139.586;2023-07-02T16:24:21;6;6;
62846;PMS5003;49477;35.676;139.586;2023-07-02T16:26:52;6;6;
62846;PMS5003;49477;35.676;139.586;2023-07-02T16:29:22;4;4;
62846;PMS5003;49477;35.676;139.586;2023-07-02T16:31:54;6;5;
62846;PMS5003;49477;35.676;139.586;2023-07-02T16:34:28;5;5;